Terminal Aerodrome Forecast
Issued by NWS

Home | Current Version | Previous Version | Text Only | Print | Product List | Glossary On
Versions: 1 2 3 4 5 6 7 8 9 10 11 12 13 14 15 16 17 18 19 20 21 22 23 24 25 26 27 28 29
139
FTUS43 KDTX 172320
TAFPTK
TAF
KPTK 172320Z 1800/1824 21012KT P6SM VCSH SCT022 BKN035
     FM180200 22008KT P6SM SCT035 BKN070
     FM180800 24010KT P6SM OVC018
     FM181500 25014G24KT P6SM BKN028
     FM182100 27013KT P6SM BKN040=

USA.gov is the U.S. government's official web portal to all federal, state and local government web resources and services.